sensor_id;sensor_type;location;lat;lon;timestamp;P1;durP1;ratioP1;P2;durP2;ratioP2
13999;SDS011;7075;53.574;10.054;2022-11-12T00:02:10;85.50;;;80.30;;
13999;SDS011;7075;53.574;10.054;2022-11-12T00:04:35;79.30;;;74.50;;
13999;SDS011;7075;53.574;10.054;2022-11-12T00:07:01;82.47;;;77.37;;
13999;SDS011;7075;53.574;10.054;2022-11-12T00:09:26;84.20;;;79.37;;
13999;SDS011;7075;53.574;10.054;2022-11-12T00:11:52;83.83;;;78.57;;
13999;SDS011;7075;53.574;10.054;2022-11-12T00:14:17;79.15;;;74.22;;
13999;SDS011;7075;53.574;10.054;2022-11-12T00:16:43;82.50;;;77.20;;
13999;SDS011;7075;53.574;10.054;2022-11-12T00:19:08;80.00;;;75.30;;
13999;SDS011;7075;53.574;10.054;2022-11-12T00:21:34;86.90;;;81.53;;
13999;SDS011;7075;53.574;10.054;2022-11-12T00:23:59;80.60;;;75.43;;
13999;SDS011;7075;53.574;10.054;2022-11-12T00:26:25;76.50;;;71.53;;
13999;SDS011;7075;53.574;10.054;2022-11-12T00:28:50;74.07;;;69.50;;
13999;SDS011;7075;53.574;10.054;2022-11-12T00:31:16;77.30;;;72.57;;
13999;SDS011;7075;53.574;10.054;2022-11-12T00:33:41;75.10;;;70.50;;
13999;SDS011;7075;53.574;10.054;2022-11-12T00:36:08;80.90;;;76.00;;
13999;SDS011;7075;53.574;10.054;2022-11-12T00:38:35;77.43;;;72.65;;
13999;SDS011;7075;53.574;10.054;2022-11-12T00:41:00;76.17;;;71.40;;
13999;SDS011;7075;53.574;10.054;2022-11-12T00:43:26;77.03;;;72.27;;
13999;SDS011;7075;53.574;10.054;2022-11-12T00:45:52;72.70;;;68.28;;
13999;SDS011;7075;53.574;10.054;2022-11-12T00:48:18;73.38;;;68.80;;
13999;SDS011;7075;53.574;10.054;2022-11-12T00:50:43;74.78;;;70.32;;
13999;SDS011;7075;53.574;10.054;2022-11-12T00:53:09;70.05;;;65.82;;
13999;SDS011;7075;53.574;10.054;2022-11-12T00:55:35;75.73;;;71.10;;
13999;SDS011;7075;53.574;10.054;2022-11-12T00:58:00;78.17;;;73.60;;
13999;SDS011;7075;53.574;10.054;2022-11-12T01:00:26;67.27;;;63.07;;
13999;SDS011;7075;53.574;10.054;2022-11-12T01:02:51;74.10;;;69.33;;
13999;SDS011;7075;53.574;10.054;2022-11-12T01:05:17;76.53;;;71.97;;
13999;SDS011;7075;53.574;10.054;2022-11-12T01:07:43;76.43;;;71.93;;
13999;SDS011;7075;53.574;10.054;2022-11-12T01:10:10;73.22;;;68.75;;
13999;SDS011;7075;53.574;10.054;2022-11-12T01:12:35;68.93;;;64.63;;
13999;SDS011;7075;53.574;10.054;2022-11-12T01:15:02;70.37;;;65.90;;
13999;SDS011;7075;53.574;10.054;2022-11-12T01:17:30;69.77;;;65.57;;
13999;SDS011;7075;53.574;10.054;2022-11-12T01:19:55;74.22;;;70.00;;
13999;SDS011;7075;53.574;10.054;2022-11-12T01:22:21;63.80;;;59.93;;
13999;SDS011;7075;53.574;10.054;2022-11-12T01:24:47;66.00;;;62.10;;
13999;SDS011;7075;53.574;10.054;2022-11-12T01:27:12;68.95;;;64.50;;
13999;SDS011;7075;53.574;10.054;2022-11-12T01:29:38;69.55;;;65.30;;
13999;SDS011;7075;53.574;10.054;2022-11-12T01:32:05;69.17;;;65.03;;
13999;SDS011;7075;53.574;10.054;2022-11-12T01:34:31;63.42;;;59.40;;
13999;SDS011;7075;53.574;10.054;2022-11-12T01:36:57;62.22;;;58.28;;
13999;SDS011;7075;53.574;10.054;2022-11-12T01:39:22;64.18;;;60.22;;
13999;SDS011;7075;53.574;10.054;2022-11-12T01:41:48;64.70;;;60.80;;
13999;SDS011;7075;53.574;10.054;2022-11-12T01:44:15;63.20;;;59.05;;
13999;SDS011;7075;53.574;10.054;2022-11-12T01:46:54;64.35;;;60.38;;
13999;SDS011;7075;53.574;10.054;2022-11-12T01:49:26;55.60;;;52.40;;
13999;SDS011;7075;53.574;10.054;2022-11-12T01:52:22;68.10;;;64.03;;
13999;SDS011;7075;53.574;10.054;2022-11-12T01:54:57;65.03;;;61.22;;
13999;SDS011;7075;53.574;10.054;2022-11-12T01:57:28;63.95;;;60.10;;
13999;SDS011;7075;53.574;10.054;2022-11-12T02:00:00;62.63;;;58.95;;
13999;SDS011;7075;53.574;10.054;2022-11-12T02:02:29;63.78;;;59.88;;
13999;SDS011;7075;53.574;10.054;2022-11-12T02:04:55;60.30;;;56.78;;
13999;SDS011;7075;53.574;10.054;2022-11-12T02:07:22;67.53;;;63.58;;
13999;SDS011;7075;53.574;10.054;2022-11-12T02:09:49;64.32;;;60.50;;
13999;SDS011;7075;53.574;10.054;2022-11-12T02:12:16;63.17;;;59.28;;
13999;SDS011;7075;53.574;10.054;2022-11-12T02:15:00;62.50;;;58.75;;
13999;SDS011;7075;53.574;10.054;2022-11-12T02:17:27;57.33;;;53.80;;
13999;SDS011;7075;53.574;10.054;2022-11-12T02:19:53;58.77;;;55.40;;
13999;SDS011;7075;53.574;10.054;2022-11-12T02:22:21;59.22;;;55.72;;
13999;SDS011;7075;53.574;10.054;2022-11-12T02:24:47;56.95;;;53.50;;
13999;SDS011;7075;53.574;10.054;2022-11-12T02:27:12;51.77;;;48.60;;
13999;SDS011;7075;53.574;10.054;2022-11-12T02:29:38;60.03;;;56.47;;
13999;SDS011;7075;53.574;10.054;2022-11-12T02:32:10;57.30;;;53.10;;
13999;SDS011;7075;53.574;10.054;2022-11-12T02:34:37;54.53;;;51.08;;
13999;SDS011;7075;53.574;10.054;2022-11-12T02:37:03;56.92;;;53.42;;
13999;SDS011;7075;53.574;10.054;2022-11-12T02:39:29;62.03;;;58.15;;
13999;SDS011;7075;53.574;10.054;2022-11-12T02:41:55;65.95;;;62.05;;
13999;SDS011;7075;53.574;10.054;2022-11-12T02:44:21;60.60;;;56.75;;
13999;SDS011;7075;53.574;10.054;2022-11-12T02:46:46;57.60;;;54.07;;
13999;SDS011;7075;53.574;10.054;2022-11-12T02:49:12;55.25;;;51.75;;
13999;SDS011;7075;53.574;10.054;2022-11-12T02:51:37;57.60;;;54.30;;
13999;SDS011;7075;53.574;10.054;2022-11-12T02:54:02;55.27;;;51.77;;
13999;SDS011;7075;53.574;10.054;2022-11-12T02:56:28;57.77;;;54.03;;
13999;SDS011;7075;53.574;10.054;2022-11-12T02:58:53;59.27;;;55.67;;
13999;SDS011;7075;53.574;10.054;2022-11-12T03:01:19;55.95;;;52.53;;
13999;SDS011;7075;53.574;10.054;2022-11-12T03:03:45;53.73;;;50.43;;
13999;SDS011;7075;53.574;10.054;2022-11-12T03:06:10;55.07;;;51.73;;
13999;SDS011;7075;53.574;10.054;2022-11-12T03:08:36;56.43;;;52.87;;
13999;SDS011;7075;53.574;10.054;2022-11-12T03:11:08;59.08;;;55.30;;
13999;SDS011;7075;53.574;10.054;2022-11-12T03:13:35;60.80;;;57.08;;
13999;SDS011;7075;53.574;10.054;2022-11-12T03:16:01;53.17;;;49.90;;
13999;SDS011;7075;53.574;10.054;2022-11-12T03:18:26;52.97;;;49.60;;
13999;SDS011;7075;53.574;10.054;2022-11-12T03:20:52;56.00;;;52.65;;
13999;SDS011;7075;53.574;10.054;2022-11-12T03:23:17;49.83;;;46.83;;
13999;SDS011;7075;53.574;10.054;2022-11-12T03:25:43;54.77;;;51.33;;
13999;SDS011;7075;53.574;10.054;2022-11-12T03:28:10;56.55;;;53.10;;
13999;SDS011;7075;53.574;10.054;2022-11-12T03:30:37;58.33;;;54.97;;
13999;SDS011;7075;53.574;10.054;2022-11-12T03:33:05;56.85;;;53.47;;
13999;SDS011;7075;53.574;10.054;2022-11-12T03:35:32;57.30;;;54.05;;
13999;SDS011;7075;53.574;10.054;2022-11-12T03:37:58;53.65;;;50.50;;
13999;SDS011;7075;53.574;10.054;2022-11-12T03:40:24;50.40;;;47.40;;
13999;SDS011;7075;53.574;10.054;2022-11-12T03:42:50;56.67;;;53.07;;
13999;SDS011;7075;53.574;10.054;2022-11-12T03:45:16;49.90;;;46.78;;
13999;SDS011;7075;53.574;10.054;2022-11-12T03:47:53;54.88;;;51.60;;
13999;SDS011;7075;53.574;10.054;2022-11-12T03:50:21;51.38;;;48.35;;
13999;SDS011;7075;53.574;10.054;2022-11-12T03:52:49;57.50;;;54.05;;
13999;SDS011;7075;53.574;10.054;2022-11-12T03:55:18;54.78;;;51.50;;
13999;SDS011;7075;53.574;10.054;2022-11-12T03:57:46;56.00;;;52.42;;
13999;SDS011;7075;53.574;10.054;2022-11-12T04:00:13;52.10;;;48.90;;
13999;SDS011;7075;53.574;10.054;2022-11-12T04:02:39;51.30;;;48.15;;
13999;SDS011;7075;53.574;10.054;2022-11-12T04:05:05;50.03;;;46.80;;
13999;SDS011;7075;53.574;10.054;2022-11-12T04:08:00;53.25;;;50.08;;
13999;SDS011;7075;53.574;10.054;2022-11-12T04:10:48;56.83;;;53.42;;
13999;SDS011;7075;53.574;10.054;2022-11-12T04:13:14;50.55;;;47.25;;
13999;SDS011;7075;53.574;10.054;2022-11-12T04:16:02;53.22;;;49.92;;
13999;SDS011;7075;53.574;10.054;2022-11-12T04:18:47;54.73;;;51.37;;
13999;SDS011;7075;53.574;10.054;2022-11-12T04:21:35;51.92;;;48.70;;
13999;SDS011;7075;53.574;10.054;2022-11-12T04:24:25;53.83;;;50.70;;
13999;SDS011;7075;53.574;10.054;2022-11-12T04:30:09;52.13;;;49.03;;
13999;SDS011;7075;53.574;10.054;2022-11-12T04:32:50;53.47;;;50.17;;
13999;SDS011;7075;53.574;10.054;2022-11-12T04:35:18;55.92;;;52.35;;
13999;SDS011;7075;53.574;10.054;2022-11-12T04:37:45;54.47;;;50.97;;
13999;SDS011;7075;53.574;10.054;2022-11-12T04:40:24;54.77;;;51.20;;
13999;SDS011;7075;53.574;10.054;2022-11-12T04:43:10;51.22;;;48.03;;
13999;SDS011;7075;53.574;10.054;2022-11-12T04:45:57;53.90;;;50.43;;
13999;SDS011;7075;53.574;10.054;2022-11-12T04:48:24;51.30;;;47.97;;
13999;SDS011;7075;53.574;10.054;2022-11-12T04:50:54;52.40;;;49.25;;
13999;SDS011;7075;53.574;10.054;2022-11-12T04:53:23;58.30;;;54.80;;
13999;SDS011;7075;53.574;10.054;2022-11-12T04:55:52;57.38;;;53.85;;
13999;SDS011;7075;53.574;10.054;2022-11-12T04:58:19;56.08;;;52.63;;
13999;SDS011;7075;53.574;10.054;2022-11-12T05:00:46;51.17;;;47.93;;
13999;SDS011;7075;53.574;10.054;2022-11-12T05:03:12;53.33;;;50.10;;
13999;SDS011;7075;53.574;10.054;2022-11-12T05:05:39;53.38;;;50.13;;
13999;SDS011;7075;53.574;10.054;2022-11-12T05:08:04;58.50;;;55.10;;
13999;SDS011;7075;53.574;10.054;2022-11-12T05:10:30;54.72;;;51.42;;
13999;SDS011;7075;53.574;10.054;2022-11-12T05:12:55;54.10;;;50.93;;
13999;SDS011;7075;53.574;10.054;2022-11-12T05:15:21;49.80;;;46.42;;
13999;SDS011;7075;53.574;10.054;2022-11-12T05:17:47;54.00;;;50.67;;
13999;SDS011;7075;53.574;10.054;2022-11-12T05:20:12;59.27;;;55.77;;
13999;SDS011;7075;53.574;10.054;2022-11-12T05:22:38;52.65;;;49.50;;
13999;SDS011;7075;53.574;10.054;2022-11-12T05:25:04;50.97;;;47.78;;
13999;SDS011;7075;53.574;10.054;2022-11-12T05:27:30;54.85;;;51.40;;
13999;SDS011;7075;53.574;10.054;2022-11-12T05:29:56;51.03;;;48.03;;
13999;SDS011;7075;53.574;10.054;2022-11-12T05:32:22;50.80;;;47.80;;
13999;SDS011;7075;53.574;10.054;2022-11-12T05:34:47;51.50;;;48.30;;
13999;SDS011;7075;53.574;10.054;2022-11-12T05:37:13;54.83;;;51.30;;
13999;SDS011;7075;53.574;10.054;2022-11-12T05:39:39;50.20;;;47.15;;
13999;SDS011;7075;53.574;10.054;2022-11-12T05:42:05;52.22;;;49.13;;
13999;SDS011;7075;53.574;10.054;2022-11-12T05:44:31;52.65;;;49.50;;
13999;SDS011;7075;53.574;10.054;2022-11-12T05:46:56;50.45;;;47.33;;
13999;SDS011;7075;53.574;10.054;2022-11-12T05:49:22;56.22;;;52.78;;
13999;SDS011;7075;53.574;10.054;2022-11-12T05:51:48;53.92;;;50.72;;
13999;SDS011;7075;53.574;10.054;2022-11-12T05:54:13;54.27;;;51.03;;
13999;SDS011;7075;53.574;10.054;2022-11-12T05:56:39;53.17;;;49.72;;
13999;SDS011;7075;53.574;10.054;2022-11-12T05:59:06;52.35;;;49.17;;
13999;SDS011;7075;53.574;10.054;2022-11-12T06:01:33;51.22;;;48.13;;
13999;SDS011;7075;53.574;10.054;2022-11-12T06:04:02;54.08;;;50.78;;
13999;SDS011;7075;53.574;10.054;2022-11-12T06:06:28;54.70;;;51.27;;
13999;SDS011;7075;53.574;10.054;2022-11-12T06:08:53;55.57;;;52.27;;
13999;SDS011;7075;53.574;10.054;2022-11-12T06:11:19;54.63;;;51.33;;
13999;SDS011;7075;53.574;10.054;2022-11-12T06:13:45;59.47;;;55.90;;
13999;SDS011;7075;53.574;10.054;2022-11-12T06:16:10;46.93;;;43.90;;
13999;SDS011;7075;53.574;10.054;2022-11-12T06:18:36;54.20;;;50.90;;
13999;SDS011;7075;53.574;10.054;2022-11-12T06:21:05;54.97;;;51.63;;
13999;SDS011;7075;53.574;10.054;2022-11-12T06:23:48;57.22;;;53.88;;
13999;SDS011;7075;53.574;10.054;2022-11-12T06:26:15;56.35;;;52.97;;
13999;SDS011;7075;53.574;10.054;2022-11-12T06:28:41;54.85;;;51.33;;
13999;SDS011;7075;53.574;10.054;2022-11-12T06:31:06;49.45;;;46.58;;
13999;SDS011;7075;53.574;10.054;2022-11-12T06:33:32;55.30;;;51.90;;
13999;SDS011;7075;53.574;10.054;2022-11-12T06:35:58;54.80;;;51.35;;
13999;SDS011;7075;53.574;10.054;2022-11-12T06:38:27;50.85;;;47.53;;
13999;SDS011;7075;53.574;10.054;2022-11-12T06:40:53;53.85;;;50.55;;
13999;SDS011;7075;53.574;10.054;2022-11-12T06:43:19;54.93;;;51.53;;
13999;SDS011;7075;53.574;10.054;2022-11-12T06:45:44;54.83;;;51.53;;
13999;SDS011;7075;53.574;10.054;2022-11-12T06:48:10;53.17;;;49.83;;
13999;SDS011;7075;53.574;10.054;2022-11-12T06:50:35;57.40;;;54.03;;
13999;SDS011;7075;53.574;10.054;2022-11-12T06:53:01;52.83;;;49.60;;
13999;SDS011;7075;53.574;10.054;2022-11-12T06:55:26;54.57;;;51.07;;
13999;SDS011;7075;53.574;10.054;2022-11-12T06:57:52;57.17;;;53.70;;
13999;SDS011;7075;53.574;10.054;2022-11-12T07:00:18;52.50;;;49.10;;
13999;SDS011;7075;53.574;10.054;2022-11-12T07:02:44;49.83;;;46.72;;
13999;SDS011;7075;53.574;10.054;2022-11-12T07:05:09;51.90;;;48.67;;
13999;SDS011;7075;53.574;10.054;2022-11-12T07:07:34;47.90;;;44.80;;
13999;SDS011;7075;53.574;10.054;2022-11-12T07:10:00;53.78;;;50.45;;
13999;SDS011;7075;53.574;10.054;2022-11-12T07:12:26;50.10;;;46.87;;
13999;SDS011;7075;53.574;10.054;2022-11-12T07:14:51;50.20;;;47.20;;
13999;SDS011;7075;53.574;10.054;2022-11-12T07:17:18;45.88;;;42.88;;
13999;SDS011;7075;53.574;10.054;2022-11-12T07:19:43;51.15;;;47.80;;
13999;SDS011;7075;53.574;10.054;2022-11-12T07:22:09;52.13;;;48.83;;
13999;SDS011;7075;53.574;10.054;2022-11-12T07:24:34;52.43;;;49.17;;
13999;SDS011;7075;53.574;10.054;2022-11-12T07:26:59;50.13;;;46.93;;
13999;SDS011;7075;53.574;10.054;2022-11-12T07:29:25;51.33;;;47.97;;
13999;SDS011;7075;53.574;10.054;2022-11-12T07:31:51;48.72;;;45.80;;
13999;SDS011;7075;53.574;10.054;2022-11-12T07:34:16;46.83;;;43.90;;
13999;SDS011;7075;53.574;10.054;2022-11-12T07:36:41;50.10;;;47.00;;
13999;SDS011;7075;53.574;10.054;2022-11-12T07:39:07;49.70;;;46.50;;
13999;SDS011;7075;53.574;10.054;2022-11-12T07:41:33;51.72;;;48.47;;
13999;SDS011;7075;53.574;10.054;2022-11-12T07:43:58;46.83;;;43.73;;
13999;SDS011;7075;53.574;10.054;2022-11-12T07:46:25;49.97;;;46.90;;
13999;SDS011;7075;53.574;10.054;2022-11-12T07:48:51;48.55;;;45.65;;
13999;SDS011;7075;53.574;10.054;2022-11-12T07:51:19;45.28;;;42.45;;
13999;SDS011;7075;53.574;10.054;2022-11-12T07:53:47;52.63;;;49.40;;
13999;SDS011;7075;53.574;10.054;2022-11-12T07:56:14;50.92;;;47.63;;
13999;SDS011;7075;53.574;10.054;2022-11-12T07:58:42;48.95;;;45.85;;
13999;SDS011;7075;53.574;10.054;2022-11-12T08:01:08;45.80;;;43.00;;
13999;SDS011;7075;53.574;10.054;2022-11-12T08:03:39;48.03;;;45.13;;
13999;SDS011;7075;53.574;10.054;2022-11-12T08:06:04;48.17;;;45.30;;
13999;SDS011;7075;53.574;10.054;2022-11-12T08:08:30;45.60;;;42.70;;
13999;SDS011;7075;53.574;10.054;2022-11-12T08:10:56;48.78;;;45.78;;
13999;SDS011;7075;53.574;10.054;2022-11-12T08:13:22;47.20;;;44.22;;
13999;SDS011;7075;53.574;10.054;2022-11-12T08:15:48;49.95;;;46.95;;
13999;SDS011;7075;53.574;10.054;2022-11-12T08:18:14;50.67;;;47.57;;
13999;SDS011;7075;53.574;10.054;2022-11-12T08:20:39;46.90;;;44.07;;
13999;SDS011;7075;53.574;10.054;2022-11-12T08:23:05;52.33;;;49.22;;
13999;SDS011;7075;53.574;10.054;2022-11-12T08:25:30;50.50;;;47.47;;
13999;SDS011;7075;53.574;10.054;2022-11-12T08:27:56;49.17;;;46.27;;
13999;SDS011;7075;53.574;10.054;2022-11-12T08:30:23;49.42;;;46.33;;
13999;SDS011;7075;53.574;10.054;2022-11-12T08:32:56;48.47;;;45.67;;
13999;SDS011;7075;53.574;10.054;2022-11-12T08:35:24;47.65;;;44.83;;
13999;SDS011;7075;53.574;10.054;2022-11-12T08:37:51;50.22;;;47.20;;
13999;SDS011;7075;53.574;10.054;2022-11-12T08:40:21;51.20;;;48.30;;
13999;SDS011;7075;53.574;10.054;2022-11-12T08:42:46;46.13;;;43.43;;
13999;SDS011;7075;53.574;10.054;2022-11-12T08:45:12;48.70;;;45.90;;
13999;SDS011;7075;53.574;10.054;2022-11-12T08:47:37;47.70;;;44.95;;
13999;SDS011;7075;53.574;10.054;2022-11-12T08:50:03;51.13;;;48.13;;
13999;SDS011;7075;53.574;10.054;2022-11-12T08:52:28;48.23;;;45.37;;
13999;SDS011;7075;53.574;10.054;2022-11-12T08:54:54;47.90;;;45.17;;
13999;SDS011;7075;53.574;10.054;2022-11-12T08:57:19;52.63;;;49.63;;
13999;SDS011;7075;53.574;10.054;2022-11-12T08:59:45;50.47;;;47.57;;
13999;SDS011;7075;53.574;10.054;2022-11-12T09:02:11;53.65;;;50.55;;
13999;SDS011;7075;53.574;10.054;2022-11-12T09:04:37;56.00;;;52.70;;
13999;SDS011;7075;53.574;10.054;2022-11-12T09:07:03;49.58;;;46.67;;
13999;SDS011;7075;53.574;10.054;2022-11-12T09:09:28;58.43;;;55.03;;
13999;SDS011;7075;53.574;10.054;2022-11-12T09:11:54;64.00;;;60.43;;
13999;SDS011;7075;53.574;10.054;2022-11-12T09:14:19;59.53;;;56.17;;
13999;SDS011;7075;53.574;10.054;2022-11-12T09:16:45;61.93;;;58.43;;
13999;SDS011;7075;53.574;10.054;2022-11-12T09:19:10;79.45;;;74.75;;
13999;SDS011;7075;53.574;10.054;2022-11-12T09:21:36;78.97;;;74.87;;
13999;SDS011;7075;53.574;10.054;2022-11-12T09:24:01;81.13;;;76.87;;
13999;SDS011;7075;53.574;10.054;2022-11-12T09:26:27;97.90;;;92.70;;
13999;SDS011;7075;53.574;10.054;2022-11-12T09:28:52;99.20;;;93.97;;
13999;SDS011;7075;53.574;10.054;2022-11-12T09:31:18;90.32;;;85.50;;
13999;SDS011;7075;53.574;10.054;2022-11-12T09:33:44;90.15;;;85.22;;
13999;SDS011;7075;53.574;10.054;2022-11-12T09:36:10;95.95;;;90.78;;
13999;SDS011;7075;53.574;10.054;2022-11-12T09:38:35;87.77;;;83.10;;
13999;SDS011;7075;53.574;10.054;2022-11-12T09:41:15;78.93;;;74.80;;
13999;SDS011;7075;53.574;10.054;2022-11-12T09:43:47;83.70;;;79.20;;
13999;SDS011;7075;53.574;10.054;2022-11-12T09:46:23;78.90;;;74.70;;
13999;SDS011;7075;53.574;10.054;2022-11-12T09:48:58;75.23;;;71.10;;
13999;SDS011;7075;53.574;10.054;2022-11-12T09:51:32;83.82;;;79.22;;
13999;SDS011;7075;53.574;10.054;2022-11-12T09:54:03;76.38;;;72.28;;
13999;SDS011;7075;53.574;10.054;2022-11-12T09:56:37;82.25;;;77.55;;
13999;SDS011;7075;53.574;10.054;2022-11-12T09:59:07;90.07;;;85.22;;
13999;SDS011;7075;53.574;10.054;2022-11-12T10:04:21;71.78;;;67.97;;
13999;SDS011;7075;53.574;10.054;2022-11-12T10:07:19;78.97;;;74.70;;
13999;SDS011;7075;53.574;10.054;2022-11-12T10:10:03;72.40;;;68.30;;
13999;SDS011;7075;53.574;10.054;2022-11-12T10:21:39;79.45;;;75.03;;
13999;SDS011;7075;53.574;10.054;2022-11-12T10:24:31;87.57;;;82.72;;
13999;SDS011;7075;53.574;10.054;2022-11-12T10:26:58;94.35;;;89.18;;
13999;SDS011;7075;53.574;10.054;2022-11-12T10:29:27;100.63;;;95.30;;
13999;SDS011;7075;53.574;10.054;2022-11-12T10:32:00;90.65;;;85.65;;
13999;SDS011;7075;53.574;10.054;2022-11-12T10:34:27;103.68;;;98.20;;
13999;SDS011;7075;53.574;10.054;2022-11-12T10:37:11;103.85;;;98.32;;
13999;SDS011;7075;53.574;10.054;2022-11-12T10:39:43;105.72;;;100.13;;
13999;SDS011;7075;53.574;10.054;2022-11-12T10:42:19;97.47;;;91.90;;
13999;SDS011;7075;53.574;10.054;2022-11-12T10:44:46;112.05;;;106.00;;
13999;SDS011;7075;53.574;10.054;2022-11-12T10:50:10;109.67;;;103.87;;
13999;SDS011;7075;53.574;10.054;2022-11-12T10:52:59;107.13;;;101.18;;
13999;SDS011;7075;53.574;10.054;2022-11-12T10:55:28;113.43;;;107.32;;
13999;SDS011;7075;53.574;10.054;2022-11-12T11:00:36;105.93;;;100.22;;
13999;SDS011;7075;53.574;10.054;2022-11-12T11:03:16;119.15;;;112.95;;
13999;SDS011;7075;53.574;10.054;2022-11-12T11:08:32;130.25;;;123.38;;
13999;SDS011;7075;53.574;10.054;2022-11-12T11:13:40;141.63;;;134.35;;
13999;SDS011;7075;53.574;10.054;2022-11-12T11:16:07;135.23;;;128.10;;
13999;SDS011;7075;53.574;10.054;2022-11-12T11:18:37;142.57;;;135.23;;
13999;SDS011;7075;53.574;10.054;2022-11-12T11:26:19;153.38;;;145.45;;
13999;SDS011;7075;53.574;10.054;2022-11-12T11:29:19;152.15;;;144.35;;
13999;SDS011;7075;53.574;10.054;2022-11-12T11:32:07;138.27;;;130.98;;
13999;SDS011;7075;53.574;10.054;2022-11-12T11:34:54;134.97;;;127.87;;
13999;SDS011;7075;53.574;10.054;2022-11-12T11:37:26;135.90;;;128.88;;
13999;SDS011;7075;53.574;10.054;2022-11-12T11:40:13;140.68;;;133.32;;
13999;SDS011;7075;53.574;10.054;2022-11-12T11:42:53;133.55;;;126.63;;
13999;SDS011;7075;53.574;10.054;2022-11-12T11:48:33;140.98;;;133.63;;
13999;SDS011;7075;53.574;10.054;2022-11-12T11:54:14;134.88;;;128.02;;
13999;SDS011;7075;53.574;10.054;2022-11-12T11:57:10;126.53;;;119.90;;
13999;SDS011;7075;53.574;10.054;2022-11-12T12:05:48;130.68;;;123.80;;
13999;SDS011;7075;53.574;10.054;2022-11-12T12:08:29;121.85;;;115.35;;
13999;SDS011;7075;53.574;10.054;2022-11-12T12:20:15;140.10;;;132.95;;
13999;SDS011;7075;53.574;10.054;2022-11-12T12:23:12;113.43;;;107.10;;
13999;SDS011;7075;53.574;10.054;2022-11-12T12:25:49;129.20;;;122.63;;
13999;SDS011;7075;53.574;10.054;2022-11-12T12:28:26;122.50;;;116.10;;
13999;SDS011;7075;53.574;10.054;2022-11-12T12:31:00;117.05;;;110.95;;
13999;SDS011;7075;53.574;10.054;2022-11-12T12:33:34;110.25;;;104.43;;
13999;SDS011;7075;53.574;10.054;2022-11-12T12:36:07;110.53;;;104.63;;
13999;SDS011;7075;53.574;10.054;2022-11-12T12:38:48;105.05;;;99.53;;
13999;SDS011;7075;53.574;10.054;2022-11-12T12:41:24;105.22;;;99.40;;
13999;SDS011;7075;53.574;10.054;2022-11-12T12:43:56;106.10;;;100.25;;
13999;SDS011;7075;53.574;10.054;2022-11-12T12:46:27;95.18;;;90.03;;
13999;SDS011;7075;53.574;10.054;2022-11-12T12:48:55;99.00;;;93.80;;
13999;SDS011;7075;53.574;10.054;2022-11-12T12:51:23;94.55;;;89.55;;
13999;SDS011;7075;53.574;10.054;2022-11-12T12:53:52;101.82;;;96.03;;
13999;SDS011;7075;53.574;10.054;2022-11-12T12:58:46;105.97;;;100.53;;
13999;SDS011;7075;53.574;10.054;2022-11-12T13:04:06;95.47;;;90.63;;
13999;SDS011;7075;53.574;10.054;2022-11-12T13:06:33;93.22;;;88.32;;
13999;SDS011;7075;53.574;10.054;2022-11-12T13:19:46;93.22;;;88.30;;
13999;SDS011;7075;53.574;10.054;2022-11-12T13:22:32;96.57;;;91.63;;
13999;SDS011;7075;53.574;10.054;2022-11-12T13:30:08;102.05;;;96.68;;
13999;SDS011;7075;53.574;10.054;2022-11-12T13:32:35;97.43;;;92.40;;
13999;SDS011;7075;53.574;10.054;2022-11-12T13:38:00;105.43;;;99.93;;
13999;SDS011;7075;53.574;10.054;2022-11-12T13:43:05;93.90;;;89.07;;
13999;SDS011;7075;53.574;10.054;2022-11-12T13:46:36;95.63;;;90.63;;
13999;SDS011;7075;53.574;10.054;2022-11-12T13:48:38;105.10;;;99.65;;
13999;SDS011;7075;53.574;10.054;2022-11-12T13:51:36;99.72;;;94.47;;
13999;SDS011;7075;53.574;10.054;2022-11-12T13:54:30;113.00;;;107.15;;
13999;SDS011;7075;53.574;10.054;2022-11-12T13:57:13;107.20;;;101.60;;
13999;SDS011;7075;53.574;10.054;2022-11-12T13:59:48;111.55;;;105.53;;
13999;SDS011;7075;53.574;10.054;2022-11-12T14:02:34;102.25;;;96.95;;
13999;SDS011;7075;53.574;10.054;2022-11-12T14:05:03;105.30;;;99.88;;
13999;SDS011;7075;53.574;10.054;2022-11-12T14:11:04;102.63;;;97.13;;
13999;SDS011;7075;53.574;10.054;2022-11-12T14:13:21;102.63;;;97.30;;
13999;SDS011;7075;53.574;10.054;2022-11-12T14:15:56;100.75;;;95.47;;
13999;SDS011;7075;53.574;10.054;2022-11-12T14:20:57;105.15;;;99.80;;
13999;SDS011;7075;53.574;10.054;2022-11-12T14:23:28;107.88;;;102.18;;
13999;SDS011;7075;53.574;10.054;2022-11-12T14:25:54;102.35;;;96.93;;
13999;SDS011;7075;53.574;10.054;2022-11-12T14:30:54;99.88;;;94.78;;
13999;SDS011;7075;53.574;10.054;2022-11-12T14:33:22;105.40;;;99.93;;
13999;SDS011;7075;53.574;10.054;2022-11-12T14:35:53;111.30;;;105.53;;
13999;SDS011;7075;53.574;10.054;2022-11-12T14:38:40;106.03;;;100.57;;
13999;SDS011;7075;53.574;10.054;2022-11-12T14:41:09;117.55;;;111.47;;
13999;SDS011;7075;53.574;10.054;2022-11-12T14:44:14;110.32;;;104.65;;
13999;SDS011;7075;53.574;10.054;2022-11-12T14:46:49;112.70;;;106.88;;
13999;SDS011;7075;53.574;10.054;2022-11-12T14:51:47;110.00;;;104.10;;
13999;SDS011;7075;53.574;10.054;2022-11-12T14:54:22;105.45;;;99.72;;
13999;SDS011;7075;53.574;10.054;2022-11-12T14:56:54;97.82;;;92.57;;
13999;SDS011;7075;53.574;10.054;2022-11-12T14:59:20;92.00;;;87.03;;
13999;SDS011;7075;53.574;10.054;2022-11-12T15:04:39;107.70;;;101.82;;
13999;SDS011;7075;53.574;10.054;2022-11-12T15:07:21;102.75;;;97.05;;
13999;SDS011;7075;53.574;10.054;2022-11-12T15:10:00;101.90;;;95.97;;
13999;SDS011;7075;53.574;10.054;2022-11-12T15:12:59;102.97;;;96.80;;
13999;SDS011;7075;53.574;10.054;2022-11-12T15:15:32;103.75;;;97.65;;
13999;SDS011;7075;53.574;10.054;2022-11-12T15:18:05;98.80;;;93.13;;
13999;SDS011;7075;53.574;10.054;2022-11-12T15:20:38;97.05;;;91.55;;
13999;SDS011;7075;53.574;10.054;2022-11-12T15:23:03;99.05;;;93.50;;
13999;SDS011;7075;53.574;10.054;2022-11-12T15:25:30;99.18;;;93.50;;
13999;SDS011;7075;53.574;10.054;2022-11-12T15:31:00;95.93;;;90.38;;
13999;SDS011;7075;53.574;10.054;2022-11-12T15:33:40;93.55;;;88.20;;
13999;SDS011;7075;53.574;10.054;2022-11-12T15:36:15;104.00;;;97.70;;
13999;SDS011;7075;53.574;10.054;2022-11-12T15:38:50;104.95;;;98.82;;
13999;SDS011;7075;53.574;10.054;2022-11-12T15:41:25;98.45;;;92.47;;
13999;SDS011;7075;53.574;10.054;2022-11-12T15:43:52;94.10;;;88.40;;
13999;SDS011;7075;53.574;10.054;2022-11-12T15:46:18;89.07;;;83.60;;
13999;SDS011;7075;53.574;10.054;2022-11-12T15:48:43;93.35;;;87.72;;
13999;SDS011;7075;53.574;10.054;2022-11-12T15:51:09;93.60;;;88.13;;
13999;SDS011;7075;53.574;10.054;2022-11-12T15:53:35;91.82;;;86.45;;
13999;SDS011;7075;53.574;10.054;2022-11-12T15:56:01;88.55;;;83.03;;
13999;SDS011;7075;53.574;10.054;2022-11-12T15:58:31;103.30;;;97.37;;
13999;SDS011;7075;53.574;10.054;2022-11-12T16:00:58;92.07;;;86.78;;
13999;SDS011;7075;53.574;10.054;2022-11-12T16:03:24;88.03;;;82.53;;
13999;SDS011;7075;53.574;10.054;2022-11-12T16:05:50;96.90;;;91.23;;
13999;SDS011;7075;53.574;10.054;2022-11-12T16:08:15;81.80;;;76.83;;
13999;SDS011;7075;53.574;10.054;2022-11-12T16:10:41;84.97;;;79.75;;